sensor_id;sensor_type;location;lat;lon;timestamp;pressure;altitude;pressure_sealevel;temperature;humidity
17607;BME280;69222;52.242;20.980;2023-12-22T00:01:39;96683.34;;;4.52;90.80
17607;BME280;69222;52.242;20.980;2023-12-22T00:04:07;96686.41;;;4.60;89.49
17607;BME280;69222;52.242;20.980;2023-12-22T00:06:35;96698.91;;;4.66;89.81
17607;BME280;69222;52.242;20.980;2023-12-22T00:09:04;96701.34;;;4.69;89.71
17607;BME280;69222;52.242;20.980;2023-12-22T00:11:32;96688.78;;;4.65;89.43
17607;BME280;69222;52.242;20.980;2023-12-22T00:14:00;96699.09;;;4.62;89.67
17607;BME280;69222;52.242;20.980;2023-12-22T00:16:28;96689.03;;;4.58;88.67
17607;BME280;69222;52.242;20.980;2023-12-22T00:18:56;96683.09;;;4.58;88.70
17607;BME280;69222;52.242;20.980;2023-12-22T00:21:24;96688.19;;;4.58;86.79
17607;BME280;69222;52.242;20.980;2023-12-22T00:23:53;96678.00;;;4.58;85.92
17607;BME280;69222;52.242;20.980;2023-12-22T00:26:23;96685.56;;;4.59;86.18
17607;BME280;69222;52.242;20.980;2023-12-22T00:28:51;96687.38;;;4.57;85.65
17607;BME280;69222;52.242;20.980;2023-12-22T00:31:19;96688.19;;;4.58;85.23
17607;BME280;69222;52.242;20.980;2023-12-22T00:33:47;96677.19;;;4.57;83.23
17607;BME280;69222;52.242;20.980;2023-12-22T00:36:15;96693.31;;;4.58;82.86
17607;BME280;69222;52.242;20.980;2023-12-22T00:38:44;96694.94;;;4.59;82.14
17607;BME280;69222;52.242;20.980;2023-12-22T00:41:12;96708.47;;;4.61;81.35
17607;BME280;69222;52.242;20.980;2023-12-22T00:43:41;96704.91;;;4.65;80.92
17607;BME280;69222;52.242;20.980;2023-12-22T00:46:09;96726.19;;;4.64;80.80
17607;BME280;69222;52.242;20.980;2023-12-22T00:48:37;96730.44;;;4.64;80.31
17607;BME280;69222;52.242;20.980;2023-12-22T00:51:05;96694.00;;;4.62;80.70
17607;BME280;69222;52.242;20.980;2023-12-22T00:53:34;96735.75;;;4.59;80.72
17607;BME280;69222;52.242;20.980;2023-12-22T00:56:02;96732.56;;;4.54;79.99
17607;BME280;69222;52.242;20.980;2023-12-22T00:58:30;96715.53;;;4.54;78.49
17607;BME280;69222;52.242;20.980;2023-12-22T01:01:01;96731.66;;;4.55;78.82
17607;BME280;69222;52.242;20.980;2023-12-22T01:03:29;96736.84;;;4.53;77.65
17607;BME280;69222;52.242;20.980;2023-12-22T01:05:57;96729.13;;;4.55;77.94
17607;BME280;69222;52.242;20.980;2023-12-22T01:08:25;96718.91;;;4.55;77.80
17607;BME280;69222;52.242;20.980;2023-12-22T01:10:52;96732.56;;;4.54;77.94
17607;BME280;69222;52.242;20.980;2023-12-22T01:13:20;96724.13;;;4.52;78.21
17607;BME280;69222;52.242;20.980;2023-12-22T01:15:48;96725.94;;;4.50;77.66
17607;BME280;69222;52.242;20.980;2023-12-22T01:18:18;96708.97;;;4.49;77.67
17607;BME280;69222;52.242;20.980;2023-12-22T01:20:46;96704.88;;;4.45;77.93
17607;BME280;69222;52.242;20.980;2023-12-22T01:23:14;96705.84;;;4.42;78.08
17607;BME280;69222;52.242;20.980;2023-12-22T01:25:42;96718.66;;;4.41;76.90
17607;BME280;69222;52.242;20.980;2023-12-22T01:28:10;96703.53;;;4.36;76.67
17607;BME280;69222;52.242;20.980;2023-12-22T01:30:37;96718.00;;;4.35;76.70
17607;BME280;69222;52.242;20.980;2023-12-22T01:33:05;96708.75;;;4.33;76.29
17607;BME280;69222;52.242;20.980;2023-12-22T01:35:35;96718.00;;;4.35;76.68
17607;BME280;69222;52.242;20.980;2023-12-22T01:38:03;96711.28;;;4.34;75.75
17607;BME280;69222;52.242;20.980;2023-12-22T01:40:31;96724.00;;;4.34;75.35
17607;BME280;69222;52.242;20.980;2023-12-22T01:43:00;96684.09;;;4.33;74.58
17607;BME280;69222;52.242;20.980;2023-12-22T01:45:28;96706.16;;;4.34;75.48
17607;BME280;69222;52.242;20.980;2023-12-22T01:47:56;96712.97;;;4.34;75.31
17607;BME280;69222;52.242;20.980;2023-12-22T01:50:25;96713.75;;;4.36;75.06
17607;BME280;69222;52.242;20.980;2023-12-22T01:52:54;96718.91;;;4.34;74.60
17607;BME280;69222;52.242;20.980;2023-12-22T01:55:23;96708.66;;;4.36;75.02
17607;BME280;69222;52.242;20.980;2023-12-22T01:57:51;96715.50;;;4.34;74.76
17607;BME280;69222;52.242;20.980;2023-12-22T02:00:19;96707.03;;;4.33;74.73
17607;BME280;69222;52.242;20.980;2023-12-22T02:02:48;96724.94;;;4.32;75.09
17607;BME280;69222;52.242;20.980;2023-12-22T02:05:17;96703.84;;;4.28;75.22
17607;BME280;69222;52.242;20.980;2023-12-22T02:07:45;96711.38;;;4.31;75.10
17607;BME280;69222;52.242;20.980;2023-12-22T02:10:17;96707.94;;;4.32;74.80
17607;BME280;69222;52.242;20.980;2023-12-22T02:12:45;96704.50;;;4.33;74.82
17607;BME280;69222;52.242;20.980;2023-12-22T02:15:14;96698.53;;;4.34;74.43
17607;BME280;69222;52.242;20.980;2023-12-22T02:17:45;96701.91;;;4.35;74.58
17607;BME280;69222;52.242;20.980;2023-12-22T02:20:16;96696.72;;;4.36;74.06
17607;BME280;69222;52.242;20.980;2023-12-22T02:22:51;96712.91;;;4.35;74.25
17607;BME280;69222;52.242;20.980;2023-12-22T02:25:19;96696.59;;;4.40;74.06
17607;BME280;69222;52.242;20.980;2023-12-22T02:27:49;96712.66;;;4.42;74.44
17607;BME280;69222;52.242;20.980;2023-12-22T02:30:24;96715.19;;;4.42;73.80
17607;BME280;69222;52.242;20.980;2023-12-22T02:32:56;96703.31;;;4.42;73.97
17607;BME280;69222;52.242;20.980;2023-12-22T02:35:28;96706.72;;;4.41;73.72
17607;BME280;69222;52.242;20.980;2023-12-22T02:37:59;96695.72;;;4.41;73.99
17607;BME280;69222;52.242;20.980;2023-12-22T02:40:28;96686.44;;;4.38;73.89
17607;BME280;69222;52.242;20.980;2023-12-22T02:42:57;96707.00;;;4.35;74.12
17607;BME280;69222;52.242;20.980;2023-12-22T02:45:26;96701.13;;;4.33;74.67
17607;BME280;69222;52.242;20.980;2023-12-22T02:47:54;96707.94;;;4.32;74.65
17607;BME280;69222;52.242;20.980;2023-12-22T02:50:22;96692.66;;;4.32;74.69
17607;BME280;69222;52.242;20.980;2023-12-22T02:52:50;96691.81;;;4.32;74.62
17607;BME280;69222;52.242;20.980;2023-12-22T02:55:19;96677.34;;;4.32;74.49
17607;BME280;69222;52.242;20.980;2023-12-22T02:57:47;96692.66;;;4.32;73.87
17607;BME280;69222;52.242;20.980;2023-12-22T03:00:16;96679.78;;;4.35;73.92
17607;BME280;69222;52.242;20.980;2023-12-22T03:02:44;96704.44;;;4.35;74.08
17607;BME280;69222;52.242;20.980;2023-12-22T03:05:12;96675.59;;;4.34;73.33
17607;BME280;69222;52.242;20.980;2023-12-22T03:07:40;96696.72;;;4.36;73.57
17607;BME280;69222;52.242;20.980;2023-12-22T03:10:08;96687.44;;;4.35;73.88
17607;BME280;69222;52.242;20.980;2023-12-22T03:12:38;96717.22;;;4.33;73.92
17607;BME280;69222;52.242;20.980;2023-12-22T03:15:07;96694.56;;;4.27;75.65
17607;BME280;69222;52.242;20.980;2023-12-22T03:17:35;96674.53;;;4.18;76.87
17607;BME280;69222;52.242;20.980;2023-12-22T03:20:04;96707.97;;;4.10;78.24
17607;BME280;69222;52.242;20.980;2023-12-22T03:22:32;96694.69;;;4.02;78.54
17607;BME280;69222;52.242;20.980;2023-12-22T03:25:00;96690.66;;;3.97;78.78
17607;BME280;69222;52.242;20.980;2023-12-22T03:27:28;96692.56;;;3.92;78.96
17607;BME280;69222;52.242;20.980;2023-12-22T03:29:58;96705.34;;;3.90;79.52
17607;BME280;69222;52.242;20.980;2023-12-22T03:32:26;96686.06;;;3.84;79.80
17607;BME280;69222;52.242;20.980;2023-12-22T03:34:54;96698.91;;;3.81;80.29
17607;BME280;69222;52.242;20.980;2023-12-22T03:37:22;96676.09;;;3.78;79.71
17607;BME280;69222;52.242;20.980;2023-12-22T03:39:50;96677.78;;;3.79;80.10
17607;BME280;69222;52.242;20.980;2023-12-22T03:42:18;96710.88;;;3.79;79.66
17607;BME280;69222;52.242;20.980;2023-12-22T03:44:49;96709.16;;;3.80;78.91
17607;BME280;69222;52.242;20.980;2023-12-22T03:47:18;96691.25;;;3.81;78.58
17607;BME280;69222;52.242;20.980;2023-12-22T03:49:46;96700.56;;;3.82;79.50
17607;BME280;69222;52.242;20.980;2023-12-22T03:52:14;96688.78;;;3.80;79.08
17607;BME280;69222;52.242;20.980;2023-12-22T03:54:43;96710.88;;;3.79;79.35
17607;BME280;69222;52.242;20.980;2023-12-22T03:57:11;96701.75;;;3.74;79.08
17607;BME280;69222;52.242;20.980;2023-12-22T03:59:39;96707.72;;;3.73;79.59
17607;BME280;69222;52.242;20.980;2023-12-22T04:02:07;96704.28;;;3.74;79.54
17607;BME280;69222;52.242;20.980;2023-12-22T04:04:39;96695.88;;;3.72;79.05
17607;BME280;69222;52.242;20.980;2023-12-22T04:07:07;96708.56;;;3.73;79.47
17607;BME280;69222;52.242;20.980;2023-12-22T04:09:36;96705.13;;;3.74;79.29
17607;BME280;69222;52.242;20.980;2023-12-22T04:12:06;96708.44;;;3.76;78.45
17607;BME280;69222;52.242;20.980;2023-12-22T04:14:34;96704.19;;;3.77;78.31
17607;BME280;69222;52.242;20.980;2023-12-22T04:17:02;96727.09;;;3.77;78.83
17607;BME280;69222;52.242;20.980;2023-12-22T04:19:31;96715.19;;;3.77;78.05
17607;BME280;69222;52.242;20.980;2023-12-22T04:22:00;96709.28;;;3.77;77.65
17607;BME280;69222;52.242;20.980;2023-12-22T04:24:29;96682.97;;;3.76;77.58
17607;BME280;69222;52.242;20.980;2023-12-22T04:26:57;96710.91;;;3.78;77.35
17607;BME280;69222;52.242;20.980;2023-12-22T04:29:25;96695.72;;;3.76;76.83
17607;BME280;69222;52.242;20.980;2023-12-22T04:31:53;96702.56;;;3.74;76.79
17607;BME280;69222;52.242;20.980;2023-12-22T04:34:21;96702.53;;;3.76;76.54
17607;BME280;69222;52.242;20.980;2023-12-22T04:36:50;96703.34;;;3.76;76.26
17607;BME280;69222;52.242;20.980;2023-12-22T04:39:19;96689.84;;;3.74;76.28
17607;BME280;69222;52.242;20.980;2023-12-22T04:41:50;96695.88;;;3.72;76.12
17607;BME280;69222;52.242;20.980;2023-12-22T04:44:18;96696.72;;;3.72;76.15
17607;BME280;69222;52.242;20.980;2023-12-22T04:46:46;96696.84;;;3.69;76.55
17607;BME280;69222;52.242;20.980;2023-12-22T04:49:14;96709.69;;;3.66;77.04
17607;BME280;69222;52.242;20.980;2023-12-22T04:51:43;96695.28;;;3.65;76.93
17607;BME280;69222;52.242;20.980;2023-12-22T04:54:11;96700.50;;;3.62;76.72
17607;BME280;69222;52.242;20.980;2023-12-22T04:56:40;96706.59;;;3.58;77.04
17607;BME280;69222;52.242;20.980;2023-12-22T04:59:08;96688.06;;;3.54;77.25
17607;BME280;69222;52.242;20.980;2023-12-22T05:01:36;96714.66;;;3.46;78.19
17607;BME280;69222;52.242;20.980;2023-12-22T05:04:04;96729.22;;;3.42;78.00
17607;BME280;69222;52.242;20.980;2023-12-22T05:06:36;96715.91;;;3.35;78.15
17607;BME280;69222;52.242;20.980;2023-12-22T05:09:04;96715.94;;;3.34;78.65
17607;BME280;69222;52.242;20.980;2023-12-22T05:11:32;96750.75;;;3.33;78.57
17607;BME280;69222;52.242;20.980;2023-12-22T05:14:02;96729.66;;;3.30;78.65
17607;BME280;69222;52.242;20.980;2023-12-22T05:16:30;96726.38;;;3.28;78.68
17607;BME280;69222;52.242;20.980;2023-12-22T05:18:58;96734.75;;;3.30;77.93
17607;BME280;69222;52.242;20.980;2023-12-22T05:21:26;96734.75;;;3.30;78.38
17607;BME280;69222;52.242;20.980;2023-12-22T05:23:54;96743.22;;;3.30;78.52
17607;BME280;69222;52.242;20.980;2023-12-22T05:26:23;96738.91;;;3.32;78.39
17607;BME280;69222;52.242;20.980;2023-12-22T05:28:51;96750.75;;;3.33;78.45
17607;BME280;69222;52.242;20.980;2023-12-22T05:31:21;96729.56;;;3.33;78.54
17607;BME280;69222;52.242;20.980;2023-12-22T05:33:49;96753.34;;;3.32;78.61
17607;BME280;69222;52.242;20.980;2023-12-22T05:36:17;96751.66;;;3.31;78.38
17607;BME280;69222;52.242;20.980;2023-12-22T05:38:45;96766.13;;;3.30;78.63
17607;BME280;69222;52.242;20.980;2023-12-22T05:41:14;96753.47;;;3.29;78.71
17607;BME280;69222;52.242;20.980;2023-12-22T05:43:42;96753.47;;;3.29;79.04
17607;BME280;69222;52.242;20.980;2023-12-22T05:46:11;96768.72;;;3.29;79.30
17607;BME280;69222;52.242;20.980;2023-12-22T05:48:40;96772.16;;;3.28;78.97
17607;BME280;69222;52.242;20.980;2023-12-22T05:51:09;96773.97;;;3.24;79.85
17607;BME280;69222;52.242;20.980;2023-12-22T05:53:40;96777.63;;;3.17;79.48
17607;BME280;69222;52.242;20.980;2023-12-22T05:56:17;96769.28;;;3.12;80.27
17607;BME280;69222;52.242;20.980;2023-12-22T05:58:46;96788.81;;;3.11;79.65
17607;BME280;69222;52.242;20.980;2023-12-22T06:01:15;96777.88;;;3.09;79.38
17607;BME280;69222;52.242;20.980;2023-12-22T06:03:45;96790.53;;;3.11;79.42
17607;BME280;69222;52.242;20.980;2023-12-22T06:06:14;96776.91;;;3.13;77.93
17607;BME280;69222;52.242;20.980;2023-12-22T06:08:42;96763.34;;;3.13;78.29
17607;BME280;69222;52.242;20.980;2023-12-22T06:11:10;96780.16;;;3.17;78.07
17607;BME280;69222;52.242;20.980;2023-12-22T06:13:38;96786.00;;;3.19;77.32
17607;BME280;69222;52.242;20.980;2023-12-22T06:16:07;96796.97;;;3.21;76.15
17607;BME280;69222;52.242;20.980;2023-12-22T06:18:37;96780.72;;;3.25;74.53
17607;BME280;69222;52.242;20.980;2023-12-22T06:21:07;96783.88;;;3.32;74.36
17607;BME280;69222;52.242;20.980;2023-12-22T06:23:35;96784.63;;;3.35;73.67
17607;BME280;69222;52.242;20.980;2023-12-22T06:26:08;96795.50;;;3.39;73.49
17607;BME280;69222;52.242;20.980;2023-12-22T06:28:36;96782.72;;;3.41;72.33
17607;BME280;69222;52.242;20.980;2023-12-22T06:31:07;96782.63;;;3.44;71.45
17607;BME280;69222;52.242;20.980;2023-12-22T06:33:35;96802.88;;;3.47;71.48
17607;BME280;69222;52.242;20.980;2023-12-22T06:36:04;96805.34;;;3.48;70.50
17607;BME280;69222;52.242;20.980;2023-12-22T06:38:34;96808.63;;;3.52;70.05
17607;BME280;69222;52.242;20.980;2023-12-22T06:41:02;96806.06;;;3.52;68.82
17607;BME280;69222;52.242;20.980;2023-12-22T06:43:30;96793.25;;;3.55;67.19
17607;BME280;69222;52.242;20.980;2023-12-22T06:45:58;96777.88;;;3.58;67.08
17607;BME280;69222;52.242;20.980;2023-12-22T06:48:26;96792.25;;;3.59;66.25
17607;BME280;69222;52.242;20.980;2023-12-22T06:50:56;96788.81;;;3.60;65.05
17607;BME280;69222;52.242;20.980;2023-12-22T06:53:24;96814.97;;;3.63;62.23
17607;BME280;69222;52.242;20.980;2023-12-22T06:55:54;96808.19;;;3.64;61.18
17607;BME280;69222;52.242;20.980;2023-12-22T06:58:22;96810.63;;;3.67;60.72
17607;BME280;69222;52.242;20.980;2023-12-22T07:00:52;96806.41;;;3.66;59.94
17607;BME280;69222;52.242;20.980;2023-12-22T07:03:20;96801.31;;;3.66;58.58
17607;BME280;69222;52.242;20.980;2023-12-22T07:05:48;96808.97;;;3.66;58.45
17607;BME280;69222;52.242;20.980;2023-12-22T07:08:17;96840.34;;;3.67;57.97
17607;BME280;69222;52.242;20.980;2023-12-22T07:10:45;96828.50;;;3.66;58.29
17607;BME280;69222;52.242;20.980;2023-12-22T07:13:15;96842.00;;;3.68;58.28
17607;BME280;69222;52.242;20.980;2023-12-22T07:15:44;96847.16;;;3.66;59.21
17607;BME280;69222;52.242;20.980;2023-12-22T07:18:12;96851.41;;;3.66;59.63
17607;BME280;69222;52.242;20.980;2023-12-22T07:20:40;96848.06;;;3.63;59.85
17607;BME280;69222;52.242;20.980;2023-12-22T07:23:09;96840.50;;;3.62;60.50
17607;BME280;69222;52.242;20.980;2023-12-22T07:25:38;96838.97;;;3.58;60.68
17607;BME280;69222;52.242;20.980;2023-12-22T07:28:06;96856.88;;;3.55;61.26
17607;BME280;69222;52.242;20.980;2023-12-22T07:30:35;96844.16;;;3.55;61.00
17607;BME280;69222;52.242;20.980;2023-12-22T07:33:04;96857.91;;;3.49;61.09
17607;BME280;69222;52.242;20.980;2023-12-22T07:35:32;96845.97;;;3.51;60.83
17607;BME280;69222;52.242;20.980;2023-12-22T07:38:01;96860.34;;;3.52;61.27
17607;BME280;69222;52.242;20.980;2023-12-22T07:40:30;96856.16;;;3.51;59.39
17607;BME280;69222;52.242;20.980;2023-12-22T07:42:58;96874.00;;;3.50;60.65
17607;BME280;69222;52.242;20.980;2023-12-22T07:45:26;96893.53;;;3.49;59.86
17607;BME280;69222;52.242;20.980;2023-12-22T07:47:56;96872.44;;;3.46;60.38
17607;BME280;69222;52.242;20.980;2023-12-22T07:50:26;96892.94;;;3.43;59.82
17607;BME280;69222;52.242;20.980;2023-12-22T07:52:55;96899.00;;;3.38;60.38
17607;BME280;69222;52.242;20.980;2023-12-22T07:55:30;96899.25;;;3.31;60.84
17607;BME280;69222;52.242;20.980;2023-12-22T07:57:58;96889.38;;;3.22;61.25
17607;BME280;69222;52.242;20.980;2023-12-22T08:00:26;96898.75;;;3.21;60.43
17607;BME280;69222;52.242;20.980;2023-12-22T08:02:56;96897.84;;;3.22;61.26
17607;BME280;69222;52.242;20.980;2023-12-22T08:05:23;96891.94;;;3.22;60.88
17607;BME280;69222;52.242;20.980;2023-12-22T08:07:52;96884.34;;;3.20;60.55
17607;BME280;69222;52.242;20.980;2023-12-22T08:10:20;96869.06;;;3.20;60.65
17607;BME280;69222;52.242;20.980;2023-12-22T08:12:48;96882.66;;;3.21;59.58
17607;BME280;69222;52.242;20.980;2023-12-22T08:15:16;96904.59;;;3.23;59.37
17607;BME280;69222;52.242;20.980;2023-12-22T08:17:56;96890.06;;;3.27;59.55
17607;BME280;69222;52.242;20.980;2023-12-22T08:20:24;96912.94;;;3.28;59.10
17607;BME280;69222;52.242;20.980;2023-12-22T08:22:58;96911.38;;;3.24;59.46
17607;BME280;69222;52.242;20.980;2023-12-22T08:25:33;96932.53;;;3.25;60.76
17607;BME280;69222;52.242;20.980;2023-12-22T08:28:01;96943.81;;;3.18;61.37
17607;BME280;69222;52.242;20.980;2023-12-22T08:30:29;96938.88;;;3.13;62.31
17607;BME280;69222;52.242;20.980;2023-12-22T08:32:59;96930.59;;;3.06;63.24
17607;BME280;69222;52.242;20.980;2023-12-22T08:35:27;96940.75;;;3.06;64.51
17607;BME280;69222;52.242;20.980;2023-12-22T08:37:55;96949.31;;;3.04;65.03
17607;BME280;69222;52.242;20.980;2023-12-22T08:40:24;96938.31;;;3.03;65.55
17607;BME280;69222;52.242;20.980;2023-12-22T08:42:54;96961.38;;;2.97;65.87
17607;BME280;69222;52.242;20.980;2023-12-22T08:45:27;96951.38;;;2.93;66.80
17607;BME280;69222;52.242;20.980;2023-12-22T08:47:56;96946.28;;;2.93;66.86
17607;BME280;69222;52.242;20.980;2023-12-22T08:50:26;96953.81;;;2.96;66.56
17607;BME280;69222;52.242;20.980;2023-12-22T08:52:54;96953.81;;;2.96;66.76
17607;BME280;69222;52.242;20.980;2023-12-22T08:55:22;96957.25;;;2.95;67.18
17607;BME280;69222;52.242;20.980;2023-12-22T08:57:50;96962.34;;;2.95;67.34
17607;BME280;69222;52.242;20.980;2023-12-22T09:00:28;96950.47;;;2.94;67.82
17607;BME280;69222;52.242;20.980;2023-12-22T09:02:56;96937.09;;;2.88;68.31
17607;BME280;69222;52.242;20.980;2023-12-22T09:05:25;96943.72;;;2.93;67.55
17607;BME280;69222;52.242;20.980;2023-12-22T09:07:53;96941.00;;;2.99;67.29
17607;BME280;69222;52.242;20.980;2023-12-22T09:10:21;96935.72;;;3.05;67.10
17607;BME280;69222;52.242;20.980;2023-12-22T09:12:49;96922.91;;;3.08;67.47
17607;BME280;69222;52.242;20.980;2023-12-22T09:15:17;96924.47;;;3.12;66.95
17607;BME280;69222;52.242;20.980;2023-12-22T09:17:45;96928.63;;;3.14;66.80
17607;BME280;69222;52.242;20.980;2023-12-22T09:20:14;96925.09;;;3.19;66.38
17607;BME280;69222;52.242;20.980;2023-12-22T09:22:43;96921.63;;;3.21;65.82
17607;BME280;69222;52.242;20.980;2023-12-22T09:25:11;96903.03;;;3.19;65.60
17607;BME280;69222;52.242;20.980;2023-12-22T09:27:39;96919.94;;;3.20;66.31
17607;BME280;69222;52.242;20.980;2023-12-22T09:30:07;96896.03;;;3.26;65.87
17607;BME280;69222;52.242;20.980;2023-12-22T09:32:35;96903.47;;;3.32;64.90
17607;BME280;69222;52.242;20.980;2023-12-22T09:35:04;96900.06;;;3.31;64.79
17607;BME280;69222;52.242;20.980;2023-12-22T09:37:32;96881.34;;;3.34;64.10
17607;BME280;69222;52.242;20.980;2023-12-22T09:40:03;96875.94;;;3.43;64.32
17607;BME280;69222;52.242;20.980;2023-12-22T09:42:34;96860.31;;;3.54;63.13
17607;BME280;69222;52.242;20.980;2023-12-22T09:45:04;96879.63;;;3.59;62.72
17607;BME280;69222;52.242;20.980;2023-12-22T09:47:33;96871.81;;;3.64;62.09
17607;BME280;69222;52.242;20.980;2023-12-22T09:50:02;96882.72;;;3.68;61.57
17607;BME280;69222;52.242;20.980;2023-12-22T09:52:31;96867.44;;;3.68;62.00
17607;BME280;69222;52.242;20.980;2023-12-22T09:55:00;96863.25;;;3.67;61.72
17607;BME280;69222;52.242;20.980;2023-12-22T09:57:30;96870.00;;;3.68;62.07
17607;BME280;69222;52.242;20.980;2023-12-22T09:59:59;96850.53;;;3.67;62.38
17607;BME280;69222;52.242;20.980;2023-12-22T10:02:27;96857.34;;;3.66;62.15
17607;BME280;69222;52.242;20.980;2023-12-22T10:04:57;96846.50;;;3.61;62.62
17607;BME280;69222;52.242;20.980;2023-12-22T10:07:25;96835.59;;;3.57;62.11
17607;BME280;69222;52.242;20.980;2023-12-22T10:09:54;96876.00;;;3.42;71.29
17607;BME280;69222;52.242;20.980;2023-12-22T10:12:24;96866.97;;;2.81;78.68
17607;BME280;69222;52.242;20.980;2023-12-22T10:14:55;96874.97;;;2.41;81.59
17607;BME280;69222;52.242;20.980;2023-12-22T10:17:23;96897.63;;;1.89;84.65
17607;BME280;69222;52.242;20.980;2023-12-22T10:19:52;96922.34;;;1.52;87.03
17607;BME280;69222;52.242;20.980;2023-12-22T10:22:20;96914.50;;;1.27;89.67
17607;BME280;69222;52.242;20.980;2023-12-22T10:24:50;96933.50;;;1.10;90.26
17607;BME280;69222;52.242;20.980;2023-12-22T10:27:19;96954.13;;;0.96;91.91
17607;BME280;69222;52.242;20.980;2023-12-22T10:29:49;96950.25;;;0.82;92.59
17607;BME280;69222;52.242;20.980;2023-12-22T10:32:19;96957.56;;;0.55;93.19
17607;BME280;69222;52.242;20.980;2023-12-22T10:34:48;96960.53;;;0.35;95.88
17607;BME280;69222;52.242;20.980;2023-12-22T10:37:16;96961.78;;;0.14;97.35
17607;BME280;69222;52.242;20.980;2023-12-22T10:39:44;96956.06;;;0.05;98.29
17607;BME280;69222;52.242;20.980;2023-12-22T10:42:15;96947.00;;;-0.06;99.85
17607;BME280;69222;52.242;20.980;2023-12-22T10:44:44;96953.75;;;-0.06;100.00
17607;BME280;69222;52.242;20.980;2023-12-22T10:47:17;96958.00;;;-0.07;100.00
17607;BME280;69222;52.242;20.980;2023-12-22T10:49:47;96948.78;;;-0.11;100.00
17607;BME280;69222;52.242;20.980;2023-12-22T10:52:15;96944.63;;;-0.15;100.00
17607;BME280;69222;52.242;20.980;2023-12-22T10:54:44;96939.69;;;-0.21;100.00
17607;BME280;69222;52.242;20.980;2023-12-22T10:57:12;96919.41;;;-0.18;100.00
17607;BME280;69222;52.242;20.980;2023-12-22T10:59:44;96913.41;;;-0.14;100.00
17607;BME280;69222;52.242;20.980;2023-12-22T11:02:27;96906.63;;;-0.12;100.00
17607;BME280;69222;52.242;20.980;2023-12-22T11:05:01;96893.91;;;-0.09;100.00
17607;BME280;69222;52.242;20.980;2023-12-22T11:07:33;96901.28;;;0.02;100.00
17607;BME280;69222;52.242;20.980;2023-12-22T11:10:03;96897.00;;;0.06;100.00
17607;BME280;69222;52.242;20.980;2023-12-22T11:12:33;96879.16;;;0.10;100.00
17607;BME280;69222;52.242;20.980;2023-12-22T11:15:04;96869.75;;;0.17;100.00
17607;BME280;69222;52.242;20.980;2023-12-22T11:17:34;96872.88;;;0.28;100.00
17607;BME280;69222;52.242;20.980;2023-12-22T11:20:05;96856.81;;;0.31;100.00
17607;BME280;69222;52.242;20.980;2023-12-22T11:22:35;96844.97;;;0.31;99.36
17607;BME280;69222;52.242;20.980;2023-12-22T11:25:05;96855.75;;;0.39;99.56
17607;BME280;69222;52.242;20.980;2023-12-22T11:27:36;96854.75;;;0.46;99.08
17607;BME280;69222;52.242;20.980;2023-12-22T11:30:05;96861.34;;;0.54;98.54
17607;BME280;69222;52.242;20.980;2023-12-22T11:32:35;96863.69;;;0.63;98.65
17607;BME280;69222;52.242;20.980;2023-12-22T11:35:05;96866.78;;;0.74;97.62
17607;BME280;69222;52.242;20.980;2023-12-22T11:37:36;96859.19;;;0.74;96.19
17607;BME280;69222;52.242;20.980;2023-12-22T11:40:07;96840.50;;;0.78;97.89
17607;BME280;69222;52.242;20.980;2023-12-22T11:42:38;96850.53;;;0.83;97.06
17607;BME280;69222;52.242;20.980;2023-12-22T11:45:13;96837.16;;;0.76;96.64
17607;BME280;69222;52.242;20.980;2023-12-22T11:47:43;96861.59;;;0.79;97.59
17607;BME280;69222;52.242;20.980;2023-12-22T11:50:27;96865.84;;;0.78;96.86
17607;BME280;69222;52.242;20.980;2023-12-22T11:52:56;96868.31;;;0.81;97.69
17607;BME280;69222;52.242;20.980;2023-12-22T11:55:55;96844.69;;;0.79;96.40
17607;BME280;69222;52.242;20.980;2023-12-22T11:58:37;96869.22;;;0.77;95.65
17607;BME280;69222;52.242;20.980;2023-12-22T12:01:07;96841.34;;;0.77;97.33
17607;BME280;69222;52.242;20.980;2023-12-22T12:03:37;96838.81;;;0.77;96.85
17607;BME280;69222;52.242;20.980;2023-12-22T12:06:22;96820.94;;;0.83;97.15
17607;BME280;69222;52.242;20.980;2023-12-22T12:08:59;96827.59;;;0.87;97.08
17607;BME280;69222;52.242;20.980;2023-12-22T12:12:08;96825.88;;;0.89;96.85
17607;BME280;69222;52.242;20.980;2023-12-22T12:14:41;96829.94;;;0.95;97.09
17607;BME280;69222;52.242;20.980;2023-12-22T12:17:09;96826.38;;;1.02;98.29
17607;BME280;69222;52.242;20.980;2023-12-22T12:19:39;96832.38;;;1.00;97.48
17607;BME280;69222;52.242;20.980;2023-12-22T12:22:12;96844.16;;;1.01;97.65
17607;BME280;69222;52.242;20.980;2023-12-22T12:24:41;96818.06;;;0.97;96.68
17607;BME280;69222;52.242;20.980;2023-12-22T12:27:17;96821.47;;;0.96;97.29
17607;BME280;69222;52.242;20.980;2023-12-22T12:29:45;96826.56;;;0.94;97.50
17607;BME280;69222;52.242;20.980;2023-12-22T12:32:14;96830.94;;;0.89;97.98
17607;BME280;69222;52.242;20.980;2023-12-22T12:34:42;96822.53;;;0.87;97.76
17607;BME280;69222;52.242;20.980;2023-12-22T12:37:12;96822.56;;;0.86;97.25
17607;BME280;69222;52.242;20.980;2023-12-22T12:39:41;96833.50;;;0.88;97.71
17607;BME280;69222;52.242;20.980;2023-12-22T12:42:15;96828.34;;;0.91;97.76
17607;BME280;69222;52.242;20.980;2023-12-22T12:44:44;96804.00;;;0.85;98.17
17607;BME280;69222;52.242;20.980;2023-12-22T12:47:14;96808.28;;;0.83;98.80
17607;BME280;69222;52.242;20.980;2023-12-22T12:49:43;96815.09;;;0.81;98.18
17607;BME280;69222;52.242;20.980;2023-12-22T12:52:14;96810.03;;;0.81;98.76
17607;BME280;69222;52.242;20.980;2023-12-22T12:54:42;96817.63;;;0.81;99.09
17607;BME280;69222;52.242;20.980;2023-12-22T12:57:14;96823.53;;;0.80;100.00
17607;BME280;69222;52.242;20.980;2023-12-22T12:59:45;96816.69;;;0.84;100.00
17607;BME280;69222;52.242;20.980;2023-12-22T13:02:13;96809.16;;;0.82;100.00
17607;BME280;69222;52.242;20.980;2023-12-22T13:04:42;96805.81;;;0.80;100.00
17607;BME280;69222;52.242;20.980;2023-12-22T13:07:11;96794.09;;;0.76;100.00
17607;BME280;69222;52.242;20.980;2023-12-22T13:09:41;96807.63;;;0.75;100.00
17607;BME280;69222;52.242;20.980;2023-12-22T13:12:10;96778.94;;;0.73;100.00